• Join FlightAware (Why Join?)
  • Login
  • US Flag 
05:26PM EST


 

Airport Tracker/Info


-or-


 

Live Flight TrackerFlight Track Log ✈ AWI3688 ✈ 07-May-2013 ✈ KPHL - KALB

Flight Track Log - Related Links

Times and Time Zones

All times are in EDT time to prevent confusion due to time zone crossing. See the AWI3688 flight status page for this flight to view local times or setup timezone preferences in your user account.

Time Position Orientation Groundspeed Altitude Reporting Facility
EDT Latitude Longitude Course Direction KTS MPH feet Rate Location/Type
12:11PM 39.8833 -75.2000 100° East 141 162 700  Level Philadelphia TRACON
12:13PM 39.8678 -75.0847 100° East 237 273 5,100 2,580 Climbing New York Center
12:14PM 39.8519 -75.0053 105° East 254 292 8,000 2,820 Climbing New York Center
12:15PM 39.8308 -74.9014 105° East 267 307 10,900 2,100 Climbing New York Center
12:16PM 39.8094 -74.7892 104° East 289 333 12,300 1,440 Climbing New York Center
12:17PM 39.8322 -74.6769 75° East 312 359 13,800 1,620 Climbing New York Center
12:18PM 39.9139 -74.6003 36° Northeast 305 351 15,600 1,680 Climbing New York Center
12:19PM 39.9981 -74.5128 39° Northeast 339 390 17,300 1,320 Climbing New York Center
12:20PM 40.0861 -74.4308 35° Northeast 376 433 18,400 1,200 Climbing New York Center
12:21PM 40.1742 -74.3431 37° Northeast 397 457 19,700 1,260 Climbing New York Center
12:22PM 40.2644 -74.2553 37° Northeast 397 457 20,900 1,080 Climbing New York Center
12:23PM 40.3644 -74.1786 30° Northeast 402 463 21,900 960 Climbing New York Center
12:24PM 40.4667 -74.1072 28° Northeast 408 470 22,900 840 Climbing New York Center
12:25PM 40.5689 -74.0275 31° Northeast 413 475 23,600 480 Climbing New York Center
12:26PM 40.6731 -73.9533 28° Northeast 413 475 23,900 60 Climbing New York Center
12:28PM 40.8775 -73.7578 36° Northeast 398 458 24,000  Climbing Boston Center
12:29PM 40.9664 -73.6442 44° Northeast 398 458 23,900 -480 Descending Boston Center
12:30PM 41.0583 -73.6183 12° North 366 421 23,100 -720 Descending Boston Center
12:31PM 41.1669 -73.6092 North 366 421 22,500 -1,140 Descending Boston Center
12:32PM 41.2775 -73.6003 North 379 436 20,900 -1,560 Descending Boston Center
12:33PM 41.3964 -73.5883 North 405 466 19,400 -1,560 Descending Boston Center
12:34PM 41.5047 -73.5794 North 401 461 17,800 -1,800 Descending Boston Center
12:35PM 41.6175 -73.5703 North 377 434 15,800 -1,920 Descending Boston Center
12:36PM 41.7114 -73.5608 North 371 427 14,000 -1,500 Descending Boston Center
12:37PM 41.8239 -73.5517 North 366 421 12,800 -1,080 Descending Boston Center
12:38PM 41.9156 -73.5447 North 372 428 11,900 -1,020 Descending Boston Center
12:38PM 41.9636 -73.5403 North 374 430 11,500 -900 Descending Boston Center
12:39PM 42.0261 -73.5356 North 364 419 11,000 -360 Descending Boston Center
12:40PM 42.0972 -73.5283 North 339 390 11,000  Level Boston Center
12:40PM 42.1178 -73.5372 342° North 343 395 11,000  Level Boston Center
12:41PM 42.1739 -73.5633 341° North 310 357 11,000  Level Boston Center
12:41PM 42.2008 -73.5778 338° Northwest 311 358 11,000 -1,380 Level Boston Center
12:42PM 42.2528 -73.5986 343° North 296 341 9,600 -2,040 Descending Boston Center
12:43PM 42.3314 -73.6419 338° Northwest 288 331 7,500 -2,040 Descending Boston Center
12:44PM 42.4019 -73.6744 341° North 282 325 5,600 -1,800 Descending Boston Center
12:45PM 42.4850 -73.7183 339° North 274 315 3,900 -1,260 Descending Boston Center
12:46PM 42.5367 -73.7447 339° North 218 251 3,100 -900 Descending Boston Center
12:47PM 42.5989 -73.7742 341° North 209 241 2,100 -600 Descending Boston Center
12:48PM 42.6444 -73.7978 339° North 201 231 2,000 -420 Descending Boston Center
12:49PM 42.6881 -73.8044 354° North 133 153 1,300 -720 Descending Boston Center
12:50PM 42.7319 -73.8081 357° North 144 166 500 -840 Descending Boston Center
12:52PM 42.7491 -73.8020 15° North  Level Estimated
12:59PM 42.7491 -73.8020 304° West  Level Estimated
01:00PM 42.7491 -73.8020 304° West  Level Estimated